createdAt,value
2017-02-05T00:00:53.924Z,0
2017-02-05T00:02:07.622Z,0
2017-02-05T00:03:21.983Z,0
2017-02-05T00:04:36.315Z,0
2017-02-05T00:05:50.720Z,0
2017-02-05T00:07:05.079Z,0
2017-02-05T00:08:18.784Z,0
2017-02-05T00:09:33.156Z,0
2017-02-05T00:10:47.480Z,0
2017-02-05T00:12:01.849Z,0
2017-02-05T00:13:16.225Z,0
2017-02-05T00:14:29.935Z,0
2017-02-05T00:15:44.292Z,0
2017-02-05T00:16:58.642Z,0
2017-02-05T00:18:13.001Z,0
2017-02-05T00:19:26.763Z,0
2017-02-05T00:20:41.131Z,0
2017-02-05T00:21:55.471Z,0
2017-02-05T00:23:09.829Z,0
2017-02-05T00:24:24.179Z,0
2017-02-05T00:25:37.302Z,0
2017-02-05T00:26:51.727Z,0
2017-02-05T00:28:06.110Z,0
2017-02-05T00:29:19.820Z,0
2017-02-05T00:30:34.207Z,0
2017-02-05T00:31:48.589Z,0
2017-02-05T00:33:02.996Z,0
2017-02-05T00:34:17.379Z,0
2017-02-05T00:35:31.751Z,0
2017-02-05T00:36:46.150Z,0
2017-02-05T00:38:00.521Z,0
2017-02-05T00:39:14.256Z,0
2017-02-05T00:40:28.589Z,0
2017-02-05T00:41:42.306Z,0
2017-02-05T00:42:56.642Z,0
2017-02-05T00:44:10.325Z,0
2017-02-05T00:45:24.028Z,0
2017-02-05T00:46:37.161Z,0
2017-02-05T00:47:51.518Z,0
2017-02-05T00:49:05.879Z,0
2017-02-05T00:50:20.269Z,0
2017-02-05T00:51:34.592Z,0
2017-02-05T00:52:48.958Z,0
2017-02-05T00:54:03.334Z,0
2017-02-05T00:55:17.706Z,0
2017-02-05T00:56:32.050Z,0
2017-02-05T00:57:46.417Z,0
2017-02-05T00:59:00.772Z,0
2017-02-05T01:00:14.481Z,0
2017-02-05T01:01:28.820Z,0
2017-02-05T01:02:43.189Z,0
2017-02-05T01:03:57.596Z,0
2017-02-05T01:05:11.976Z,0
2017-02-05T01:06:26.364Z,0
2017-02-05T01:07:40.731Z,0
2017-02-05T01:08:55.418Z,0
2017-02-05T01:10:09.995Z,0
2017-02-05T01:11:24.386Z,0
2017-02-05T01:12:38.716Z,0
2017-02-05T01:13:53.121Z,0
2017-02-05T01:15:07.479Z,0
2017-02-05T01:16:21.214Z,0
2017-02-05T01:17:34.940Z,0
2017-02-05T01:18:49.281Z,0
2017-02-05T01:20:03.673Z,0
2017-02-05T01:21:18.041Z,0
2017-02-05T01:22:31.757Z,0
2017-02-05T01:23:46.131Z,0
2017-02-05T01:25:00.511Z,0
2017-02-05T01:26:14.868Z,0
2017-02-05T01:27:29.231Z,0
2017-02-05T01:28:43.650Z,0
2017-02-05T01:29:58.012Z,0
2017-02-05T01:31:12.361Z,0
2017-02-05T01:32:26.701Z,0
2017-02-05T01:33:41.111Z,0
2017-02-05T01:34:55.651Z,0
2017-02-05T01:36:10.045Z,0
2017-02-05T01:37:24.406Z,0
2017-02-05T01:38:38.774Z,0
2017-02-05T01:39:53.159Z,0
2017-02-05T01:41:07.535Z,0
2017-02-05T01:42:20.599Z,0
2017-02-05T01:43:34.966Z,0
2017-02-05T01:44:49.365Z,0
2017-02-05T01:46:03.760Z,0
2017-02-05T01:47:18.121Z,0
2017-02-05T01:48:32.522Z,0
2017-02-05T01:49:46.238Z,0
2017-02-05T01:51:00.563Z,0
2017-02-05T01:52:14.310Z,0
2017-02-05T01:53:28.727Z,0
2017-02-05T01:54:41.825Z,0
2017-02-05T01:55:56.177Z,0
2017-02-05T01:57:09.899Z,0
2017-02-05T01:58:23.628Z,0
2017-02-05T01:59:38.175Z,0
2017-02-05T02:00:51.914Z,0
2017-02-05T02:02:05.642Z,0
2017-02-05T02:03:19.352Z,0
2017-02-05T02:04:33.110Z,0
2017-02-05T02:05:47.491Z,0
2017-02-05T02:07:01.870Z,0
2017-02-05T02:08:15.610Z,0
2017-02-05T02:09:29.996Z,0
2017-02-05T02:10:44.383Z,0
2017-02-05T02:11:58.750Z,0
2017-02-05T02:13:13.085Z,0
2017-02-05T02:14:27.476Z,0
2017-02-05T02:15:41.190Z,0
2017-02-05T02:16:55.524Z,0
2017-02-05T02:18:09.921Z,0
2017-02-05T02:19:24.315Z,0
2017-02-05T02:20:38.685Z,0
2017-02-05T02:21:52.422Z,0
2017-02-05T02:23:06.788Z,0
2017-02-05T02:24:21.150Z,0
2017-02-05T02:25:35.504Z,0
2017-02-05T02:26:49.865Z,0
2017-02-05T02:28:04.246Z,0
2017-02-05T02:29:18.658Z,0
2017-02-05T02:30:33.040Z,0
2017-02-05T02:31:47.412Z,0
2017-02-05T02:33:01.783Z,0
2017-02-05T02:34:16.130Z,0
2017-02-05T02:35:30.471Z,0
2017-02-05T02:36:44.852Z,0
2017-02-05T02:37:58.582Z,0
2017-02-05T02:39:12.933Z,0
2017-02-05T02:40:27.284Z,0
2017-02-05T02:41:41.010Z,0
2017-02-05T02:42:55.399Z,0
2017-02-05T02:44:09.735Z,0
2017-02-05T02:45:24.131Z,0
2017-02-05T02:46:37.888Z,0
2017-02-05T02:47:52.245Z,0
2017-02-05T02:49:06.592Z,0
2017-02-05T02:50:20.942Z,0
2017-02-05T02:51:35.319Z,0
2017-02-05T02:52:49.716Z,0
2017-02-05T02:54:04.075Z,0
2017-02-05T02:55:18.415Z,0
2017-02-05T02:56:32.802Z,0
2017-02-05T02:57:47.167Z,0
2017-02-05T02:59:01.544Z,0
2017-02-05T03:00:15.280Z,0
2017-02-05T03:01:29.624Z,0
2017-02-05T03:02:42.693Z,0
2017-02-05T03:03:57.039Z,0
2017-02-05T03:05:10.804Z,0
2017-02-05T03:06:25.259Z,0
2017-02-05T03:07:39.625Z,0
2017-02-05T03:08:53.946Z,0
2017-02-05T03:10:08.337Z,0
2017-02-05T03:11:22.705Z,0
2017-02-05T03:12:36.477Z,0
2017-02-05T03:13:50.851Z,0
2017-02-05T03:15:05.192Z,0
2017-02-05T03:16:19.547Z,0
2017-02-05T03:17:33.917Z,0
2017-02-05T03:18:48.290Z,0
2017-02-05T03:20:02.686Z,0
2017-02-05T03:21:16.435Z,0
2017-02-05T03:22:30.811Z,0
2017-02-05T03:23:45.176Z,0
2017-02-05T03:24:59.561Z,0
2017-02-05T03:26:13.950Z,0
2017-02-05T03:27:28.431Z,0
2017-02-05T03:28:42.802Z,0
2017-02-05T03:29:57.207Z,0
2017-02-05T03:31:10.915Z,0
2017-02-05T03:32:25.251Z,0
2017-02-05T03:33:39.644Z,0
2017-02-05T03:34:54.055Z,0
2017-02-05T03:36:08.483Z,0
2017-02-05T03:37:22.876Z,0
2017-02-05T03:38:37.290Z,0
2017-02-05T03:39:51.692Z,0
2017-02-05T03:41:06.073Z,0
2017-02-05T03:42:20.419Z,0
2017-02-05T03:43:34.791Z,0
2017-02-05T03:44:48.554Z,0
2017-02-05T03:46:02.284Z,0
2017-02-05T03:47:16.749Z,0
2017-02-05T03:48:31.096Z,0
2017-02-05T03:49:45.476Z,0
2017-02-05T03:50:59.845Z,0
2017-02-05T03:52:12.940Z,0
2017-02-05T03:53:27.286Z,0
2017-02-05T03:54:41.034Z,0
2017-02-05T03:55:55.364Z,0
2017-02-05T03:57:09.709Z,0
2017-02-05T03:58:24.061Z,0
2017-02-05T03:59:38.400Z,0
2017-02-05T04:00:52.798Z,0
2017-02-05T04:02:06.530Z,0
2017-02-05T04:03:20.948Z,0
2017-02-05T04:04:34.670Z,0
2017-02-05T04:05:49.030Z,0
2017-02-05T04:07:03.397Z,0
2017-02-05T04:08:17.971Z,0
2017-02-05T04:09:32.316Z,0
2017-02-05T04:10:46.663Z,0
2017-02-05T04:12:01.044Z,0
2017-02-05T04:13:14.747Z,0
2017-02-05T04:14:29.108Z,0
2017-02-05T04:15:43.480Z,0
2017-02-05T04:16:57.867Z,0
2017-02-05T04:18:10.937Z,0
2017-02-05T04:19:25.304Z,0
2017-02-05T04:20:39.679Z,0
2017-02-05T04:21:53.390Z,0
2017-02-05T04:23:07.750Z,0
2017-02-05T04:24:21.509Z,0
2017-02-05T04:25:35.881Z,0
2017-02-05T04:26:50.259Z,0
2017-02-05T04:28:04.619Z,0
2017-02-05T04:29:19.328Z,0
2017-02-05T04:30:33.689Z,0
2017-02-05T04:31:47.411Z,0
2017-02-05T04:33:01.764Z,0
2017-02-05T04:34:15.483Z,0
2017-02-05T04:35:29.893Z,0
2017-02-05T04:36:44.262Z,0
2017-02-05T04:37:58.667Z,0
2017-02-05T04:39:13.015Z,0
2017-02-05T04:40:27.380Z,0
2017-02-05T04:41:41.744Z,0
2017-02-05T04:42:56.131Z,0
2017-02-05T04:44:09.848Z,0
2017-02-05T04:45:24.204Z,0
2017-02-05T04:46:37.919Z,0
2017-02-05T04:47:52.293Z,0
2017-02-05T04:49:06.683Z,0
2017-02-05T04:50:21.065Z,0
2017-02-05T04:51:35.429Z,0
2017-02-05T04:52:49.760Z,0
2017-02-05T04:54:04.096Z,0
2017-02-05T04:55:18.439Z,0
2017-02-05T04:56:32.804Z,0
2017-02-05T04:57:47.190Z,0
2017-02-05T04:59:01.579Z,0
2017-02-05T05:00:15.330Z,0
2017-02-05T05:01:29.720Z,0
2017-02-05T05:02:44.091Z,0
2017-02-05T05:03:57.813Z,0
2017-02-05T05:05:12.168Z,0
2017-02-05T05:06:26.553Z,0
2017-02-05T05:07:40.936Z,0
2017-02-05T05:08:55.326Z,0
2017-02-05T05:10:08.383Z,0
2017-02-05T05:11:22.717Z,0
2017-02-05T05:12:37.094Z,0
2017-02-05T05:13:51.443Z,0
2017-02-05T05:15:05.863Z,0
2017-02-05T05:16:19.596Z,0
2017-02-05T05:17:33.931Z,0
2017-02-05T05:18:48.313Z,0
2017-02-05T05:20:02.697Z,0
2017-02-05T05:21:16.401Z,0
2017-02-05T05:22:30.751Z,0
2017-02-05T05:23:45.109Z,0
2017-02-05T05:24:59.454Z,0
2017-02-05T05:26:13.177Z,0
2017-02-05T05:27:27.578Z,0
2017-02-05T05:28:41.925Z,0
2017-02-05T05:29:56.336Z,0
2017-02-05T05:31:10.666Z,0
2017-02-05T05:32:25.036Z,0
2017-02-05T05:33:39.426Z,0
2017-02-05T05:34:53.804Z,0
2017-02-05T05:36:07.522Z,0
2017-02-05T05:37:21.250Z,0
2017-02-05T05:38:35.619Z,0
2017-02-05T05:39:49.987Z,0
2017-02-05T05:41:04.341Z,0
2017-02-05T05:42:18.677Z,0
2017-02-05T05:43:33.042Z,0
2017-02-05T05:44:47.435Z,0
2017-02-05T05:46:01.828Z,0
2017-02-05T05:47:16.199Z,0
2017-02-05T05:48:30.556Z,0
2017-02-05T05:49:44.271Z,0
2017-02-05T05:50:58.640Z,0
2017-02-05T05:52:12.367Z,0
2017-02-05T05:53:26.737Z,0
2017-02-05T05:54:41.103Z,0
2017-02-05T05:55:55.466Z,0
2017-02-05T05:57:09.846Z,0
2017-02-05T05:58:24.223Z,0
2017-02-05T05:59:38.585Z,0
2017-02-05T06:00:52.949Z,0
2017-02-05T06:02:07.348Z,0
2017-02-05T06:03:21.690Z,0
2017-02-05T06:04:36.081Z,0
2017-02-05T06:05:49.780Z,0
2017-02-05T06:07:04.109Z,0
2017-02-05T06:08:18.507Z,0
2017-02-05T06:09:32.851Z,0
2017-02-05T06:10:47.244Z,0
2017-02-05T06:12:01.626Z,0
2017-02-05T06:13:15.372Z,0
2017-02-05T06:14:30.112Z,0
2017-02-05T06:15:44.013Z,0
2017-02-05T06:16:58.370Z,0
2017-02-05T06:18:12.727Z,0
2017-02-05T06:19:27.134Z,0
2017-02-05T06:20:41.505Z,0
2017-02-05T06:21:55.869Z,0
2017-02-05T06:23:10.242Z,0
2017-02-05T06:24:23.950Z,0
2017-02-05T06:25:38.343Z,0
2017-02-05T06:26:52.725Z,0
2017-02-05T06:28:07.095Z,0
2017-02-05T06:29:20.880Z,0
2017-02-05T06:30:35.231Z,0
2017-02-05T06:31:49.566Z,0
2017-02-05T06:33:03.953Z,0
2017-02-05T06:34:18.315Z,0
2017-02-05T06:35:32.711Z,0
2017-02-05T06:36:46.416Z,0
2017-02-05T06:38:00.850Z,0
2017-02-05T06:39:15.248Z,0
2017-02-05T06:40:29.620Z,0
2017-02-05T06:41:43.339Z,0
2017-02-05T06:42:57.742Z,0
2017-02-05T06:44:11.466Z,0
2017-02-05T06:45:25.823Z,0
2017-02-05T06:46:40.170Z,0
2017-02-05T06:47:54.514Z,0
2017-02-05T06:49:08.914Z,0
2017-02-05T06:50:23.306Z,0
2017-02-05T06:51:37.695Z,0
2017-02-05T06:52:52.049Z,0
2017-02-05T06:54:06.417Z,0
2017-02-05T06:55:20.773Z,0
2017-02-05T06:56:35.186Z,0
2017-02-05T06:57:49.571Z,0
2017-02-05T06:59:03.950Z,0
2017-02-05T07:00:17.008Z,0
2017-02-05T07:01:31.359Z,0
2017-02-05T07:02:45.069Z,0
2017-02-05T07:03:59.412Z,0
2017-02-05T07:05:13.822Z,0
2017-02-05T07:06:28.162Z,0
2017-02-05T07:07:42.530Z,0
2017-02-05T07:08:56.873Z,0
2017-02-05T07:10:10.577Z,0
2017-02-05T07:11:24.964Z,0
2017-02-05T07:12:39.337Z,0
2017-02-05T07:13:53.719Z,0
2017-02-05T07:15:08.069Z,0
2017-02-05T07:16:22.424Z,0
2017-02-05T07:17:36.796Z,0
2017-02-05T07:18:51.219Z,0
2017-02-05T07:20:05.599Z,0
2017-02-05T07:21:19.977Z,0
2017-02-05T07:22:33.722Z,0
2017-02-05T07:23:48.038Z,0
2017-02-05T07:25:02.384Z,0
2017-02-05T07:26:16.148Z,0
2017-02-05T07:27:30.515Z,0
2017-02-05T07:28:44.852Z,0
2017-02-05T07:29:59.193Z,0
2017-02-05T07:31:13.536Z,0
2017-02-05T07:32:27.243Z,0
2017-02-05T07:33:41.197Z,0
2017-02-05T07:34:55.570Z,0
2017-02-05T07:36:09.939Z,0
2017-02-05T07:37:24.291Z,0
2017-02-05T07:38:38.642Z,0
2017-02-05T07:39:53.007Z,0
2017-02-05T07:41:07.393Z,0
2017-02-05T07:42:21.775Z,0
2017-02-05T07:43:36.175Z,0
2017-02-05T07:44:50.525Z,0
2017-02-05T07:46:04.856Z,0
2017-02-05T07:47:18.564Z,0
2017-02-05T07:48:32.310Z,0
2017-02-05T07:49:46.029Z,0
2017-02-05T07:51:00.384Z,0
2017-02-05T07:52:14.779Z,0
2017-02-05T07:53:29.159Z,0
2017-02-05T07:54:43.530Z,0
2017-02-05T07:55:57.895Z,0
2017-02-05T07:57:12.283Z,0
2017-02-05T07:58:26.665Z,0
2017-02-05T07:59:41.214Z,0
2017-02-05T08:00:55.551Z,0
2017-02-05T08:02:09.922Z,0
2017-02-05T08:03:24.298Z,0
2017-02-05T08:04:38.673Z,0
2017-02-05T08:05:53.061Z,0
2017-02-05T08:07:06.150Z,0
2017-02-05T08:08:20.544Z,0
2017-02-05T08:09:34.922Z,0
2017-02-05T08:10:49.330Z,0
2017-02-05T08:12:03.733Z,0
2017-02-05T08:13:18.123Z,0
2017-02-05T08:14:32.475Z,0
2017-02-05T08:15:46.847Z,0
2017-02-05T08:17:01.213Z,0
2017-02-05T08:18:14.285Z,0
2017-02-05T08:19:28.695Z,0
2017-02-05T08:20:43.046Z,0
2017-02-05T08:21:57.386Z,4
2017-02-05T08:23:11.151Z,4
2017-02-05T08:24:24.274Z,4
2017-02-05T08:25:38.665Z,8
2017-02-05T08:26:53.099Z,8
2017-02-05T08:28:07.458Z,8
2017-02-05T08:29:21.192Z,16
2017-02-05T08:30:35.546Z,20
2017-02-05T08:31:49.881Z,24
2017-02-05T08:33:04.248Z,40
2017-02-05T08:34:18.681Z,52
2017-02-05T08:35:33.050Z,72
2017-02-05T08:36:47.391Z,92
2017-02-05T08:38:01.816Z,124
2017-02-05T08:39:15.562Z,156
2017-02-05T08:40:29.276Z,200
2017-02-05T08:41:43.677Z,252
2017-02-05T08:42:58.030Z,308
2017-02-05T08:44:12.377Z,372
2017-02-05T08:45:26.080Z,448
2017-02-05T08:46:40.464Z,532
2017-02-05T08:47:54.821Z,628
2017-02-05T08:49:09.170Z,728
2017-02-05T08:50:23.545Z,840
2017-02-05T08:51:37.271Z,960
2017-02-05T08:52:51.909Z,1092
2017-02-05T08:54:06.291Z,1236
2017-02-05T08:55:19.990Z,1408
2017-02-05T08:56:33.731Z,1608
2017-02-05T08:57:48.083Z,1808
2017-02-05T08:59:02.480Z,2036
2017-02-05T09:00:16.194Z,2304
2017-02-05T09:01:30.564Z,2572
2017-02-05T09:02:44.941Z,2888
2017-02-05T09:03:59.320Z,3224
2017-02-05T09:05:13.682Z,3556
2017-02-05T09:06:28.067Z,3916
2017-02-05T09:07:41.819Z,4276
2017-02-05T09:08:56.147Z,4828
2017-02-05T09:10:10.525Z,5176
2017-02-05T09:11:24.892Z,5624
2017-02-05T09:12:39.252Z,6080
2017-02-05T09:13:53.629Z,6560
2017-02-05T09:15:07.992Z,7212
2017-02-05T09:16:21.074Z,7620
2017-02-05T09:17:35.484Z,8164
2017-02-05T09:18:49.228Z,8708
2017-02-05T09:20:03.634Z,9152
2017-02-05T09:21:18.001Z,9788
2017-02-05T09:22:32.401Z,10092
2017-02-05T09:23:46.792Z,10224
2017-02-05T09:25:01.151Z,11744
2017-02-05T09:26:15.503Z,12108
2017-02-05T09:27:29.855Z,12696
2017-02-05T09:28:43.597Z,13436
2017-02-05T09:29:57.906Z,13456
2017-02-05T09:31:12.248Z,14304
2017-02-05T09:32:26.653Z,15104
2017-02-05T09:33:40.406Z,14976
2017-02-05T09:34:54.789Z,15456
2017-02-05T09:36:09.167Z,16576
2017-02-05T09:37:23.529Z,16896
2017-02-05T09:38:37.220Z,17888
2017-02-05T09:39:51.608Z,18560
2017-02-05T09:41:05.962Z,19264
2017-02-05T09:42:20.323Z,19072
2017-02-05T09:43:34.028Z,20256
2017-02-05T09:44:48.372Z,20768
2017-02-05T09:46:02.736Z,22080
2017-02-05T09:47:16.472Z,22560
2017-02-05T09:48:30.203Z,22848
2017-02-05T09:49:44.590Z,24992
2017-02-05T09:50:58.307Z,25824
2017-02-05T09:52:12.697Z,25984
2017-02-05T09:53:27.065Z,26336
2017-02-05T09:54:40.794Z,27072
2017-02-05T09:55:55.154Z,27744
2017-02-05T09:57:09.525Z,28736
2017-02-05T09:58:23.896Z,29440
2017-02-05T09:59:38.281Z,30016
2017-02-05T10:00:52.623Z,32192
2017-02-05T10:02:07.008Z,33088
2017-02-05T10:03:21.393Z,32608
2017-02-05T10:04:35.737Z,34848
2017-02-05T10:05:50.113Z,35840
2017-02-05T10:07:04.523Z,36896
2017-02-05T10:08:18.244Z,38208
2017-02-05T10:09:31.951Z,37248
2017-02-05T10:10:45.694Z,37984
2017-02-05T10:12:00.031Z,39776
2017-02-05T10:13:13.779Z,40352
2017-02-05T10:14:28.147Z,41184
2017-02-05T10:15:42.504Z,41376
2017-02-05T10:16:56.863Z,44160
2017-02-05T10:18:10.616Z,44800
2017-02-05T10:19:24.326Z,45184
2017-02-05T10:20:37.395Z,46464
2017-02-05T10:21:51.832Z,46720
2017-02-05T10:23:06.216Z,48448
2017-02-05T10:24:20.765Z,47744
2017-02-05T10:25:34.704Z,50112
2017-02-05T10:26:49.054Z,51360
2017-02-05T10:28:03.421Z,51488
2017-02-05T10:29:17.132Z,50880
2017-02-05T10:30:30.903Z,52640
2017-02-05T10:31:45.258Z,51456
2017-02-05T10:32:59.619Z,53440
2017-02-05T10:34:14.172Z,52256
2017-02-05T10:35:28.569Z,52928
2017-02-05T10:36:42.978Z,56224
2017-02-05T10:37:57.335Z,56352
2017-02-05T10:39:11.058Z,58336
2017-02-05T10:40:25.469Z,56256
2017-02-05T10:41:39.838Z,56544
2017-02-05T10:42:53.607Z,58560
2017-02-05T10:44:07.958Z,57664
2017-02-05T10:45:21.706Z,59936
2017-02-05T10:46:36.271Z,61888
2017-02-05T10:47:50.684Z,61984
2017-02-05T10:49:05.070Z,62432
2017-02-05T10:50:19.466Z,64352
2017-02-05T10:51:33.891Z,65312
2017-02-05T10:52:48.260Z,66432
2017-02-05T10:54:01.990Z,64928
2017-02-05T10:55:16.373Z,66176
2017-02-05T10:56:30.749Z,67968
2017-02-05T10:57:45.159Z,64896
2017-02-05T10:58:58.892Z,68768
2017-02-05T11:00:12.625Z,69024
2017-02-05T11:01:27.008Z,70208
2017-02-05T11:02:40.760Z,69056
2017-02-05T11:03:55.109Z,70560
2017-02-05T11:05:09.457Z,67584
2017-02-05T11:06:23.866Z,73344
2017-02-05T11:07:37.575Z,72608
2017-02-05T11:08:51.934Z,73856
2017-02-05T11:10:06.331Z,75456
2017-02-05T11:11:20.706Z,76416
2017-02-05T11:12:35.108Z,75648
2017-02-05T11:13:49.582Z,73344
2017-02-05T11:15:03.306Z,78080
2017-02-05T11:16:17.051Z,75008
2017-02-05T11:17:31.458Z,78400
2017-02-05T11:18:45.826Z,78368
2017-02-05T11:19:59.542Z,72672
2017-02-05T11:21:13.932Z,70336
2017-02-05T11:22:28.304Z,73888
2017-02-05T11:23:42.698Z,76000
2017-02-05T11:24:57.038Z,80672
2017-02-05T11:26:11.396Z,80672
2017-02-05T11:27:25.794Z,78688
2017-02-05T11:28:40.142Z,80288
2017-02-05T11:29:54.576Z,76832
2017-02-05T11:31:08.958Z,75552
2017-02-05T11:32:23.329Z,77088
2017-02-05T11:33:37.706Z,71616
2017-02-05T11:34:52.090Z,71968
2017-02-05T11:36:06.427Z,66688
2017-02-05T11:37:20.784Z,70464
2017-02-05T11:38:34.538Z,80800
2017-02-05T11:39:48.271Z,77408
2017-02-05T11:41:02.659Z,74976
2017-02-05T11:42:17.041Z,75744
2017-02-05T11:43:31.464Z,74304
2017-02-05T11:44:45.200Z,65664
2017-02-05T11:45:59.607Z,50400
2017-02-05T11:47:13.314Z,46272
2017-02-05T11:48:27.689Z,47776
2017-02-05T11:49:42.065Z,50144
2017-02-05T11:50:56.423Z,50592
2017-02-05T11:52:10.133Z,57664
2017-02-05T11:53:24.489Z,68224
2017-02-05T11:54:38.220Z,71904
2017-02-05T11:55:53.599Z,78208
2017-02-05T11:57:07.330Z,83584
2017-02-05T11:58:21.091Z,85344
2017-02-05T11:59:35.452Z,85120
2017-02-05T12:00:49.847Z,90432
2017-02-05T12:02:04.214Z,96640
2017-02-05T12:03:17.957Z,94208
2017-02-05T12:04:31.685Z,104256
2017-02-05T12:05:45.435Z,105184
2017-02-05T12:06:59.167Z,108512
2017-02-05T12:08:12.930Z,106016
2017-02-05T12:09:27.303Z,109472
2017-02-05T12:10:41.671Z,104256
2017-02-05T12:11:56.046Z,106688
2017-02-05T12:13:10.460Z,100480
2017-02-05T12:14:24.210Z,101696
2017-02-05T12:15:38.564Z,107360
2017-02-05T12:16:52.947Z,51904
2017-02-05T12:18:07.308Z,85568
2017-02-05T12:19:21.666Z,103168
2017-02-05T12:20:36.084Z,57056
2017-02-05T12:21:50.478Z,72640
2017-02-05T12:23:04.226Z,104128
2017-02-05T12:24:18.569Z,106080
2017-02-05T12:25:32.975Z,100896
2017-02-05T12:26:47.352Z,56160
2017-02-05T12:28:01.732Z,55360
2017-02-05T12:29:15.514Z,71232
2017-02-05T12:30:29.893Z,126304
2017-02-05T12:31:43.632Z,130080
2017-02-05T12:32:58.009Z,70560
2017-02-05T12:34:12.410Z,123584
2017-02-05T12:35:26.752Z,105472
2017-02-05T12:36:40.503Z,111264
2017-02-05T12:37:54.874Z,140896
2017-02-05T12:39:09.252Z,115648
2017-02-05T12:40:23.584Z,130912
2017-02-05T12:41:37.959Z,140448
2017-02-05T12:42:51.688Z,143456
2017-02-05T12:44:06.077Z,75392
2017-02-05T12:45:20.464Z,63744
2017-02-05T12:46:34.834Z,85984
2017-02-05T12:47:49.252Z,118784
2017-02-05T12:49:03.625Z,50272
2017-02-05T12:50:16.724Z,48096
2017-02-05T12:51:31.132Z,46208
2017-02-05T12:52:45.475Z,44448
2017-02-05T12:53:59.843Z,43872
2017-02-05T12:55:13.568Z,49344
2017-02-05T12:56:27.951Z,40288
2017-02-05T12:57:41.666Z,42784
2017-02-05T12:58:56.015Z,43008
2017-02-05T13:00:10.426Z,127296
2017-02-05T13:01:24.757Z,126624
2017-02-05T13:02:39.136Z,122816
2017-02-05T13:03:53.564Z,128320
2017-02-05T13:05:07.979Z,128576
2017-02-05T13:06:22.397Z,113856
2017-02-05T13:07:36.764Z,132960
2017-02-05T13:08:51.120Z,130560
2017-02-05T13:10:04.861Z,120928
2017-02-05T13:11:19.263Z,121728
2017-02-05T13:12:33.649Z,128704
2017-02-05T13:13:48.069Z,135488
2017-02-05T13:15:02.438Z,56064
2017-02-05T13:16:16.875Z,110112
2017-02-05T13:17:31.281Z,106560
2017-02-05T13:18:45.037Z,81280
2017-02-05T13:19:58.141Z,83424
2017-02-05T13:21:12.539Z,74464
2017-02-05T13:22:26.923Z,58944
2017-02-05T13:23:41.651Z,52288
2017-02-05T13:24:59.514Z,52864
2017-02-05T13:26:13.854Z,66400
2017-02-05T13:27:27.545Z,56032
2017-02-05T13:28:41.265Z,63296
2017-02-05T13:29:55.639Z,64544
2017-02-05T13:31:09.998Z,104320
2017-02-05T13:32:24.381Z,126656
2017-02-05T13:33:38.121Z,53440
2017-02-05T13:34:52.508Z,48512
2017-02-05T13:36:06.863Z,47168
2017-02-05T13:37:20.579Z,48128
2017-02-05T13:38:34.911Z,50592
2017-02-05T13:39:49.267Z,53760
2017-02-05T13:41:03.693Z,56864
2017-02-05T13:42:18.119Z,144928
2017-02-05T13:43:31.850Z,51744
2017-02-05T13:44:46.256Z,47712
2017-02-05T13:46:00.670Z,68640
2017-02-05T13:47:15.056Z,57664
2017-02-05T13:48:29.483Z,124544
2017-02-05T13:49:43.871Z,45888
2017-02-05T13:50:58.220Z,40160
2017-02-05T13:52:11.939Z,46656
2017-02-05T13:53:26.264Z,148832
2017-02-05T13:54:40.666Z,147072
2017-02-05T13:55:54.399Z,143904
2017-02-05T13:57:08.777Z,132032
2017-02-05T13:58:23.148Z,47584
2017-02-05T13:59:37.528Z,160096
2017-02-05T14:00:51.855Z,154752
2017-02-05T14:02:06.235Z,138496
2017-02-05T14:03:20.637Z,123040
2017-02-05T14:04:34.397Z,99232
2017-02-05T14:05:48.124Z,138784
2017-02-05T14:07:02.518Z,104320
2017-02-05T14:08:16.911Z,92096
2017-02-05T14:09:31.251Z,76160
2017-02-05T14:10:45.682Z,84224
2017-02-05T14:12:00.128Z,121696
2017-02-05T14:13:13.897Z,90336
2017-02-05T14:14:28.216Z,64416
2017-02-05T14:15:42.594Z,56896
2017-02-05T14:16:56.961Z,77280
2017-02-05T14:18:10.685Z,81312
2017-02-05T14:19:24.415Z,113184
2017-02-05T14:20:38.796Z,90272
2017-02-05T14:21:53.204Z,85920
2017-02-05T14:23:07.566Z,60800
2017-02-05T14:24:21.345Z,64160
2017-02-05T14:25:35.730Z,133920
2017-02-05T14:26:50.110Z,173536
2017-02-05T14:28:04.478Z,138592
2017-02-05T14:29:18.226Z,138464
2017-02-05T14:30:32.621Z,103712
2017-02-05T14:31:46.444Z,132288
2017-02-05T14:33:00.836Z,57472
2017-02-05T14:34:15.229Z,59392
2017-02-05T14:35:29.618Z,85056
2017-02-05T14:36:43.357Z,56576
2017-02-05T14:37:57.765Z,77952
2017-02-05T14:39:12.152Z,143552
2017-02-05T14:40:26.554Z,56864
2017-02-05T14:41:40.928Z,63680
2017-02-05T14:42:55.316Z,81216
2017-02-05T14:44:09.705Z,64640
2017-02-05T14:45:24.081Z,76800
2017-02-05T14:46:38.442Z,142784
2017-02-05T14:47:52.190Z,62528
2017-02-05T14:49:05.902Z,141760
2017-02-05T14:50:20.319Z,67840
2017-02-05T14:51:34.695Z,169280
2017-02-05T14:52:49.115Z,84064
2017-02-05T14:54:03.495Z,159328
2017-02-05T14:55:17.872Z,153984
2017-02-05T14:56:32.200Z,157376
2017-02-05T14:57:46.594Z,150240
2017-02-05T14:59:00.988Z,36512
2017-02-05T15:00:14.091Z,32416
2017-02-05T15:01:28.540Z,32160
2017-02-05T15:02:43.005Z,36320
2017-02-05T15:03:57.399Z,44832
2017-02-05T15:05:11.759Z,47296
2017-02-05T15:06:26.182Z,158336
2017-02-05T15:07:40.571Z,156512
2017-02-05T15:08:54.992Z,110176
2017-02-05T15:10:09.347Z,31392
2017-02-05T15:11:23.724Z,28384
2017-02-05T15:12:38.088Z,28800
2017-02-05T15:13:51.819Z,30976
2017-02-05T15:15:06.218Z,43296
2017-02-05T15:16:20.556Z,51328
2017-02-05T15:17:34.942Z,121056
2017-02-05T15:18:49.319Z,148864
2017-02-05T15:20:03.693Z,139776
2017-02-05T15:21:17.463Z,131744
2017-02-05T15:22:31.864Z,128736
2017-02-05T15:23:46.224Z,129376
2017-02-05T15:25:00.617Z,135744
2017-02-05T15:26:14.375Z,141536
2017-02-05T15:27:28.778Z,146432
2017-02-05T15:28:43.196Z,37056
2017-02-05T15:29:57.601Z,43456
2017-02-05T15:31:11.358Z,141984
2017-02-05T15:32:25.747Z,153152
2017-02-05T15:33:40.158Z,41920
2017-02-05T15:34:54.531Z,39680
2017-02-05T15:36:08.907Z,34880
2017-02-05T15:37:23.301Z,38368
2017-02-05T15:38:37.697Z,40608
2017-02-05T15:39:52.049Z,39296
2017-02-05T15:41:06.422Z,155904
2017-02-05T15:42:20.776Z,148512
2017-02-05T15:43:34.506Z,143168
2017-02-05T15:44:48.300Z,36896
2017-02-05T15:46:02.682Z,37600
2017-02-05T15:47:17.074Z,36000
2017-02-05T15:48:31.441Z,137120
2017-02-05T15:49:45.172Z,131616
2017-02-05T15:50:59.594Z,123136
2017-02-05T15:52:14.032Z,131072
2017-02-05T15:53:28.415Z,122816
2017-02-05T15:54:42.820Z,137408
2017-02-05T15:55:57.298Z,25920
2017-02-05T15:57:11.709Z,143680
2017-02-05T15:58:26.139Z,143232
2017-02-05T15:59:39.921Z,142688
2017-02-05T16:00:54.280Z,38816
2017-02-05T16:02:08.009Z,26816
2017-02-05T16:03:21.727Z,29856
2017-02-05T16:04:36.119Z,52064
2017-02-05T16:05:49.840Z,138080
2017-02-05T16:07:04.198Z,139392
2017-02-05T16:08:18.584Z,140160
2017-02-05T16:09:32.943Z,29632
2017-02-05T16:10:47.316Z,32960
2017-02-05T16:12:01.741Z,36224
2017-02-05T16:13:16.131Z,33504
2017-02-05T16:14:30.519Z,32288
2017-02-05T16:15:44.892Z,34048
2017-02-05T16:16:58.592Z,131680
2017-02-05T16:18:12.979Z,145792
2017-02-05T16:19:27.381Z,144320
2017-02-05T16:20:41.759Z,140096
2017-02-05T16:21:55.509Z,133952
2017-02-05T16:23:09.895Z,29536
2017-02-05T16:24:24.230Z,60800
2017-02-05T16:25:38.623Z,30496
2017-02-05T16:26:53.037Z,31072
2017-02-05T16:28:07.404Z,131808
2017-02-05T16:29:21.157Z,76096
2017-02-05T16:30:35.518Z,37888
2017-02-05T16:31:49.906Z,135616
2017-02-05T16:33:04.298Z,115584
2017-02-05T16:34:18.642Z,105472
2017-02-05T16:35:33.012Z,120320
2017-02-05T16:36:46.759Z,127200
2017-02-05T16:38:01.110Z,131840
2017-02-05T16:39:15.536Z,136416
2017-02-05T16:40:29.931Z,138400
2017-02-05T16:41:44.321Z,134624
2017-02-05T16:42:58.732Z,133376
2017-02-05T16:44:13.097Z,46432
2017-02-05T16:45:27.479Z,31808
2017-02-05T16:46:41.864Z,119520
2017-02-05T16:47:55.591Z,136640
2017-02-05T16:49:09.990Z,134368
2017-02-05T16:50:24.366Z,131488
2017-02-05T16:51:38.722Z,127264
2017-02-05T16:52:53.070Z,128192
2017-02-05T16:54:07.445Z,129344
2017-02-05T16:55:21.188Z,125024
2017-02-05T16:56:35.548Z,115936
2017-02-05T16:57:49.283Z,103712
2017-02-05T16:59:03.702Z,100864